• Join FlightAware (Why Join?)
  • Login
  • US Flag 
04:31PM EST


 

Airport Tracker/Info


-or-


 

Live Flight TrackerFlight Track Log ✈ ASQ5848 ✈ 26-Apr-2013 ✈ KORD - KTYS

Flight Track Log - Related Links

Times and Time Zones

All times are in EDT time to prevent confusion due to time zone crossing. See the ASQ5848 flight status page for this flight to view local times or setup timezone preferences in your user account.

Time Position Orientation Groundspeed Altitude Reporting Facility
EDT Latitude Longitude Course Direction KTS MPH feet Rate Location/Type
06:08PM 41.9333 -87.9000 169° South 170 196 2,700  Level Chicago TRACON
06:09PM 41.8667 -87.8833 169° South 225 259 4,600 1,684 Climbing Chicago TRACON
06:10PM 41.8217 -87.8817 178° South 218 251 5,900 2,127 Climbing Chicago Center
06:11PM 41.7622 -87.8342 149° Southeast 246 283 8,500 2,419 Climbing Chicago Center
06:12PM 41.6844 -87.7733 150° Southeast 269 310 10,900 1,984 Climbing Chicago Center
06:13PM 41.6108 -87.7178 151° Southeast 300 345 12,600 1,742 Climbing Chicago Center
06:14PM 41.5333 -87.6572 150° Southeast 319 367 14,500 1,200 Climbing Chicago Center
06:15PM 41.4506 -87.5928 150° Southeast 334 384 15,100 672 Climbing Chicago Center
06:16PM 41.3475 -87.5597 166° South 377 434 15,900 968 Climbing Chicago Center
06:17PM 41.2411 -87.5411 173° South 383 441 17,100 1,016 Climbing Chicago Center
06:18PM 41.1336 -87.5153 170° South 390 449 18,000 1,113 Climbing Chicago Center
06:19PM 41.0028 -87.4803 169° South 399 459 19,400 1,210 Climbing Chicago Center
06:20PM 40.8925 -87.4492 168° South 405 466 20,500 1,113 Climbing Chicago Center
06:21PM 40.7781 -87.4203 169° South 416 479 21,700 1,113 Climbing Chicago Center
06:22PM 40.6636 -87.3908 169° South 419 482 22,800 774 Climbing Chicago Center
06:23PM 40.5464 -87.3594 168° South 430 495 23,300 1,016 Climbing Chicago Center
06:24PM 40.4142 -87.3000 161° South 455 524 24,900 1,403 Climbing Chicago Center
06:25PM 40.3117 -87.2036 144° Southeast 450 518 26,200 1,306 Climbing Chicago Center
06:26PM 40.2094 -87.1094 145° Southeast 449 517 27,600 964 Climbing Chicago Center
06:27PM 40.1236 -87.0300 145° Southeast 445 512 28,000 750 Climbing Indianapolis Center
06:28PM 40.0183 -86.9331 145° Southeast 458 527 29,000 968 Climbing Indianapolis Center
06:29PM 39.9111 -86.8403 146° Southeast 460 529 30,000 968 Climbing Indianapolis Center
06:30PM 39.7850 -86.7367 148° Southeast 460 529 31,000 484 Climbing Indianapolis Center
06:31PM 39.6858 -86.6178 137° Southeast 504 580 31,000  Level Indianapolis Center
06:32PM 39.6150 -86.4544 119° Southeast 522 601 31,000  Level Indianapolis Center
06:33PM 39.5439 -86.2911 119° Southeast 527 606 31,000  Level Indianapolis Center
06:34PM 39.4597 -86.0997 120° Southeast 527 606 31,000  Level Indianapolis Center
06:35PM 39.3878 -85.9361 120° Southeast 525 604 31,000  Level Indianapolis Center
06:36PM 39.3153 -85.7731 120° Southeast 521 600 31,000  Level Indianapolis Center
06:37PM 39.2414 -85.6083 120° Southeast 525 604 31,000  Level Indianapolis Center
06:39PM 39.1650 -85.4478 121° Southeast 524 603 31,000  Level Indianapolis Center
06:40PM 39.0492 -85.3558 148° Southeast 486 559 31,000  Level Indianapolis Center
06:41PM 38.9044 -85.2856 159° South 474 545 31,000  Level Indianapolis Center
06:42PM 38.7794 -85.2261 160° South 473 544 31,000  Level Indianapolis Center
06:43PM 38.6556 -85.1653 159° South 473 544 31,000  Level Indianapolis Center
06:44PM 38.5364 -85.1078 159° South 472 543 31,000  Level Indianapolis Center
06:45PM 38.4125 -85.0478 159° South 475 547 31,000  Level Indianapolis Center
06:46PM 38.2672 -84.9806 160° South 475 547 31,000  Level Indianapolis Center
06:47PM 38.1422 -84.9219 160° South 476 548 31,000  Level Indianapolis Center
06:48PM 38.0172 -84.8639 160° South 478 550 31,000  Level Indianapolis Center
06:49PM 37.8950 -84.8025 158° South 473 544 31,000  Level Indianapolis Center
06:50PM 37.7697 -84.7450 160° South 477 549 31,000 -581 Level Indianapolis Center
06:51PM 37.6250 -84.6772 160° South 475 547 29,800 -2,032 Descending Indianapolis Center
06:52PM 37.4994 -84.6208 160° South 478 550 26,800 -2,758 Descending Indianapolis Center
06:53PM 37.3739 -84.5614 159° South 481 554 24,100 -1,548 Descending Indianapolis Center
06:54PM 37.2544 -84.5056 160° South 461 531 23,600 -726 Descending Indianapolis Center
06:55PM 37.1358 -84.4514 160° South 456 525 22,600 -1,065 Descending Indianapolis Center
06:56PM 37.0011 -84.3900 160° South 443 510 21,400 -823 Descending Indianapolis Center
06:57PM 36.8833 -84.3350 160° South 450 518 20,900 -1,355 Descending Indianapolis Center
06:58PM 36.7669 -84.2817 160° South 448 516 18,600 -2,129 Descending Indianapolis Center
06:59PM 36.6536 -84.2300 160° South 439 505 16,500 -2,226 Descending Indianapolis Center
07:00PM 36.5492 -84.1825 160° South 413 475 14,000 -2,419 Descending Indianapolis Center
07:01PM 36.4456 -84.1356 160° South 390 449 11,500 -1,385 Descending Indianapolis Center
07:02PM 36.3231 -84.0850 162° South 386 444 11,000 -328 Descending Atlanta Center
07:03PM 36.2272 -84.0697 173° South 369 425 10,800 -500 Descending Atlanta Center
07:04PM 36.1439 -84.0722 181° South 331 381 10,000 -800 Descending Atlanta Center
07:05PM 36.0686 -84.0747 182° South 297 342 9,200 -1,100 Descending Atlanta Center
07:06PM 36.0000 -84.0772 182° South 269 310 7,800 -2,000 Descending Atlanta Center
07:07PM 35.9331 -84.0772 180° South 256 295 5,200 -1,900 Descending Atlanta Center
07:08PM 35.8725 -84.1053 201° Southwest 244 281 4,000 -600 Descending Atlanta Center
07:09PM 35.8100 -84.1411 205° Southwest 239 275 4,000 -100 Level Atlanta Center
07:10PM 35.7578 -84.1719 206° Southwest 232 267 3,800 -200 Descending Atlanta Center
07:13PM 35.8000 -83.9833 90° East  Level FlightAware Approximate
07:20PM 35.8110 -83.9940 90° East  Level Estimated